createdAt,value
2022-12-01T00:01:18.322Z,96534.38
2022-12-01T00:03:44.750Z,96529.75
2022-12-01T00:06:20.143Z,96528.84
2022-12-01T00:09:07.650Z,96525.63
2022-12-01T00:11:36.095Z,96531.38
2022-12-01T00:14:03.747Z,96520.41
2022-12-01T00:16:30.293Z,96516.66
2022-12-01T00:18:57.188Z,96521.13
2022-12-01T00:21:25.641Z,96523.41
2022-12-01T00:23:55.732Z,96523.41
2022-12-01T00:26:23.870Z,96517.94
2022-12-01T00:28:51.732Z,96521.44
2022-12-01T00:31:19.249Z,96521.72
2022-12-01T00:33:45.804Z,96516.00
2022-12-01T00:36:12.341Z,96517.09
2022-12-01T00:38:39.225Z,96516.78
2022-12-01T00:41:05.781Z,96523.06
2022-12-01T00:43:32.129Z,96520.28
2022-12-01T00:45:59.472Z,96526.69
2022-12-01T00:48:27.071Z,96520.91
2022-12-01T00:50:54.645Z,96525.38
2022-12-01T00:53:22.125Z,96526.13
2022-12-01T00:55:48.446Z,96525.84
2022-12-01T00:58:14.966Z,96528.53
2022-12-01T01:00:43.199Z,96530.13
2022-12-01T01:03:10.753Z,96531.50
2022-12-01T01:05:39.051Z,96532.31
2022-12-01T01:08:10.719Z,96528.91
2022-12-01T01:10:42.286Z,96535.03
2022-12-01T01:13:09.087Z,96527.56
2022-12-01T01:15:36.343Z,96532.59
2022-12-01T01:18:03.382Z,96537.47
2022-12-01T01:20:29.739Z,96534.22
2022-12-01T01:22:56.811Z,96526.06
2022-12-01T01:25:23.524Z,96525.63
2022-12-01T01:27:50.366Z,96528.78
2022-12-01T01:30:17.714Z,96520.84
2022-12-01T01:32:44.066Z,96524.78
2022-12-01T01:35:10.370Z,96520.16
2022-12-01T01:37:37.114Z,96531.91
2022-12-01T01:40:03.812Z,96529.97
2022-12-01T01:42:30.133Z,96537.38
2022-12-01T01:44:58.203Z,96528.97
2022-12-01T01:47:34.857Z,96518.50
2022-12-01T01:50:09.621Z,96520.94
2022-12-01T01:52:41.123Z,96536.66
2022-12-01T01:55:07.997Z,96535.28
2022-12-01T01:57:35.256Z,96529.31
2022-12-01T02:00:09.602Z,96527.28
2022-12-01T02:02:47.946Z,96526.38
2022-12-01T02:05:26.569Z,96520.25
2022-12-01T02:07:56.142Z,96517.44
2022-12-01T02:10:44.841Z,96531.03
2022-12-01T02:13:23.870Z,96516.13
2022-12-01T02:16:09.569Z,96515.81
2022-12-01T02:19:07.454Z,96510.75
2022-12-01T02:21:58.200Z,96505.44
2022-12-01T02:24:53.830Z,96511.56
2022-12-01T02:28:02.364Z,96505.97
2022-12-01T02:30:41.058Z,96505.75
2022-12-01T02:33:27.985Z,96492.72
2022-12-01T02:36:10.002Z,96510.13
2022-12-01T02:38:54.331Z,96496.75
2022-12-01T02:41:30.244Z,96488.59
2022-12-01T02:44:27.392Z,96507.56
2022-12-01T02:47:11.207Z,96501.31
2022-12-01T02:49:44.626Z,96501.91
2022-12-01T02:52:11.546Z,96503.25
2022-12-01T02:54:38.342Z,96501.47
2022-12-01T02:57:05.180Z,96505.38
2022-12-01T02:59:32.090Z,96504.91
2022-12-01T03:02:12.802Z,96504.41
2022-12-01T03:04:46.833Z,96508.13
2022-12-01T03:07:39.422Z,96500.97
2022-12-01T03:10:29.429Z,96500.56
2022-12-01T03:13:14.611Z,96507.09
2022-12-01T03:15:50.565Z,96510.50
2022-12-01T03:18:42.630Z,96512.16
2022-12-01T03:21:27.200Z,96502.47
2022-12-01T03:24:01.015Z,96505.19
2022-12-01T03:26:30.674Z,96496.69
2022-12-01T03:29:08.120Z,96497.00
2022-12-01T03:31:41.166Z,96501.91
2022-12-01T03:34:17.891Z,96496.56
2022-12-01T03:36:50.241Z,96507.69
2022-12-01T03:39:22.574Z,96506.03
2022-12-01T03:41:58.710Z,96511.25
2022-12-01T03:44:31.581Z,96505.41
2022-12-01T03:47:06.480Z,96507.97
2022-12-01T03:49:34.492Z,96501.34
2022-12-01T03:52:20.605Z,96491.09
2022-12-01T03:55:12.998Z,96494.69
2022-12-01T03:57:46.160Z,96498.28
2022-12-01T04:00:15.201Z,96497.69
2022-12-01T04:02:42.646Z,96504.03
2022-12-01T04:05:12.782Z,96500.91
2022-12-01T04:07:40.293Z,96515.22
2022-12-01T04:10:08.000Z,96506.25
2022-12-01T04:12:34.977Z,96507.53
2022-12-01T04:15:10.968Z,96491.91
2022-12-01T04:17:37.859Z,96493.41
2022-12-01T04:20:06.569Z,96503.03
2022-12-01T04:22:33.625Z,96501.09
2022-12-01T04:25:00.403Z,96496.63
2022-12-01T04:27:26.758Z,96503.56
2022-12-01T04:29:53.077Z,96505.81
2022-12-01T04:32:19.905Z,96492.00
2022-12-01T04:34:46.216Z,96500.44
2022-12-01T04:37:12.837Z,96499.00
2022-12-01T04:39:39.569Z,96497.69
2022-12-01T04:42:06.003Z,96496.41
2022-12-01T04:44:35.006Z,96508.59
2022-12-01T04:47:03.478Z,96498.25
2022-12-01T04:49:30.367Z,96496.63
2022-12-01T04:51:56.790Z,96500.75
2022-12-01T04:54:24.069Z,96498.72
2022-12-01T04:56:50.749Z,96503.41
2022-12-01T04:59:17.410Z,96497.50
2022-12-01T05:01:44.953Z,96497.38
2022-12-01T05:04:13.198Z,96506.69
2022-12-01T05:06:40.238Z,96507.59
2022-12-01T05:09:08.023Z,96506.91
2022-12-01T05:11:34.697Z,96506.25
2022-12-01T05:14:01.124Z,96511.56
2022-12-01T05:16:32.258Z,96509.25
2022-12-01T05:19:20.047Z,96512.94
2022-12-01T05:21:48.588Z,96529.13
2022-12-01T05:24:15.971Z,96516.44
2022-12-01T05:26:43.412Z,96513.38
2022-12-01T05:29:11.317Z,96513.00
2022-12-01T05:31:39.479Z,96504.41
2022-12-01T05:34:07.059Z,96509.03
2022-12-01T05:36:33.826Z,96506.94
2022-12-01T05:39:00.129Z,96497.38
2022-12-01T05:41:26.463Z,96505.53
2022-12-01T05:43:53.177Z,96506.84
2022-12-01T05:46:19.595Z,96502.16
2022-12-01T05:48:47.163Z,96499.00
2022-12-01T05:51:16.283Z,96509.78
2022-12-01T05:53:43.469Z,96505.44
2022-12-01T05:56:10.209Z,96507.47
2022-12-01T05:58:37.213Z,96514.88
2022-12-01T06:01:03.902Z,96509.09
2022-12-01T06:03:30.210Z,96509.41
2022-12-01T06:05:57.069Z,96509.94
2022-12-01T06:08:23.484Z,96507.91
2022-12-01T06:10:49.835Z,96503.34
2022-12-01T06:13:16.533Z,96507.69
2022-12-01T06:15:42.966Z,96507.47
2022-12-01T06:18:09.720Z,96506.19
2022-12-01T06:20:36.518Z,96505.53
2022-12-01T06:23:03.199Z,96508.88
2022-12-01T06:25:29.601Z,96505.59
2022-12-01T06:27:58.047Z,96512.31
2022-12-01T06:30:25.174Z,96505.06
2022-12-01T06:32:51.606Z,96506.81
2022-12-01T06:35:18.417Z,96517.78
2022-12-01T06:37:44.790Z,96516.00
2022-12-01T06:40:11.761Z,96519.94
2022-12-01T06:42:38.465Z,96517.44
2022-12-01T06:45:05.331Z,96516.53
2022-12-01T06:47:31.662Z,96526.91
2022-12-01T06:49:58.332Z,96534.69
2022-12-01T06:52:25.009Z,96527.44
2022-12-01T06:54:51.356Z,96522.25
2022-12-01T06:57:18.343Z,96532.59
2022-12-01T06:59:45.185Z,96528.31
2022-12-01T07:02:11.917Z,96532.06
2022-12-01T07:04:39.055Z,96534.31
2022-12-01T07:07:06.194Z,96533.31
2022-12-01T07:09:32.986Z,96539.25
2022-12-01T07:11:59.577Z,96539.53
2022-12-01T07:14:26.821Z,96527.28
2022-12-01T07:16:54.106Z,96537.69
2022-12-01T07:19:20.612Z,96548.69
2022-12-01T07:21:47.516Z,96542.47
2022-12-01T07:24:14.364Z,96541.13
2022-12-01T07:26:41.568Z,96544.34
2022-12-01T07:29:09.598Z,96542.19
2022-12-01T07:31:36.779Z,96552.50
2022-12-01T07:34:03.793Z,96555.13
2022-12-01T07:36:30.603Z,96560.19
2022-12-01T07:38:57.192Z,96554.13
2022-12-01T07:41:23.508Z,96559.75
2022-12-01T07:43:50.320Z,96559.81
2022-12-01T07:46:26.309Z,96555.13
2022-12-01T07:48:55.421Z,96562.91
2022-12-01T07:51:23.595Z,96561.53
2022-12-01T07:53:50.829Z,96561.31
2022-12-01T07:56:18.756Z,96554.06
2022-12-01T07:58:45.229Z,96565.28
2022-12-01T08:01:20.720Z,96556.47
2022-12-01T08:03:52.015Z,96563.09
2022-12-01T08:06:19.577Z,96562.97
2022-12-01T08:08:47.122Z,96562.81
2022-12-01T08:11:22.271Z,96569.56
2022-12-01T08:13:50.516Z,96566.94
2022-12-01T08:16:19.133Z,96575.84
2022-12-01T08:18:46.066Z,96574.63
2022-12-01T08:21:15.686Z,96576.31
2022-12-01T08:23:42.619Z,96568.78
2022-12-01T08:26:12.914Z,96571.66
2022-12-01T08:28:40.194Z,96566.06
2022-12-01T08:31:19.560Z,96576.81
2022-12-01T08:33:48.376Z,96566.34
2022-12-01T08:36:15.491Z,96569.94
2022-12-01T08:38:46.004Z,96571.41
2022-12-01T08:41:14.005Z,96570.06
2022-12-01T08:43:57.217Z,96567.78
2022-12-01T08:46:25.519Z,96569.34
2022-12-01T08:48:52.015Z,96560.97
2022-12-01T08:51:18.983Z,96565.28
2022-12-01T08:53:48.619Z,96569.63
2022-12-01T08:56:27.249Z,96569.19
2022-12-01T08:58:54.936Z,96570.06
2022-12-01T09:01:22.000Z,96566.13
2022-12-01T09:03:49.046Z,96569.78
2022-12-01T09:06:20.827Z,96570.97
2022-12-01T09:08:47.986Z,96564.47
2022-12-01T09:11:18.949Z,96567.59
2022-12-01T09:13:53.050Z,96567.72
2022-12-01T09:16:21.016Z,96571.38
2022-12-01T09:18:48.208Z,96570.13
2022-12-01T09:21:21.401Z,96571.00
2022-12-01T09:23:48.492Z,96568.38
2022-12-01T09:26:18.983Z,96578.63
2022-12-01T09:28:52.468Z,96579.53
2022-12-01T09:31:20.608Z,96572.63
2022-12-01T09:33:46.997Z,96580.56
2022-12-01T09:36:13.740Z,96583.03
2022-12-01T09:38:40.222Z,96575.63
2022-12-01T09:41:11.543Z,96578.44
2022-12-01T09:43:46.230Z,96574.81
2022-12-01T09:46:21.588Z,96580.97
2022-12-01T09:48:51.612Z,96579.13
2022-12-01T09:51:21.027Z,96575.16
2022-12-01T09:53:54.055Z,96572.72
2022-12-01T09:56:34.936Z,96572.53
2022-12-01T09:59:07.316Z,96572.72
2022-12-01T10:01:38.366Z,96568.34
2022-12-01T10:04:31.277Z,96568.16
2022-12-01T10:07:03.299Z,96558.09
2022-12-01T10:09:44.451Z,96555.59
2022-12-01T10:12:27.819Z,96557.09
2022-12-01T10:15:02.143Z,96555.47
2022-12-01T10:17:41.086Z,96547.44
2022-12-01T10:20:13.195Z,96551.53
2022-12-01T10:22:53.103Z,96550.25
2022-12-01T10:25:28.535Z,96548.09
2022-12-01T10:28:23.158Z,96545.66
2022-12-01T10:30:52.139Z,96544.94
2022-12-01T10:33:35.891Z,96543.38
2022-12-01T10:36:02.290Z,96538.69
2022-12-01T10:38:32.533Z,96533.94
2022-12-01T10:41:01.360Z,96528.06
2022-12-01T10:43:51.185Z,96526.38
2022-12-01T10:46:35.606Z,96527.75
2022-12-01T10:49:09.611Z,96526.31
2022-12-01T10:51:46.678Z,96526.34
2022-12-01T10:54:12.990Z,96520.47
2022-12-01T10:56:45.937Z,96511.31
2022-12-01T10:59:30.992Z,96512.16
2022-12-01T11:01:58.906Z,96516.25
2022-12-01T11:04:37.069Z,96523.06
2022-12-01T11:07:04.121Z,96510.31
2022-12-01T11:09:31.247Z,96504.41
2022-12-01T11:12:00.518Z,96513.22
2022-12-01T11:14:44.825Z,96506.00
2022-12-01T11:17:29.568Z,96506.06
2022-12-01T11:19:56.356Z,96502.75
2022-12-01T11:22:32.087Z,96502.63
2022-12-01T11:25:01.149Z,96498.69
2022-12-01T11:27:36.310Z,96502.81
2022-12-01T11:30:20.667Z,96498.88
2022-12-01T11:32:54.331Z,96502.09
2022-12-01T11:35:24.150Z,96501.75
2022-12-01T11:38:27.903Z,96498.81
2022-12-01T11:40:51.584Z,96496.53
2022-12-01T11:43:37.294Z,96496.53
2022-12-01T11:46:06.286Z,96502.47
2022-12-01T11:48:36.078Z,96495.09
2022-12-01T11:51:05.525Z,96489.34
2022-12-01T11:53:36.396Z,96491.66
2022-12-01T11:56:23.931Z,96494.59
2022-12-01T11:58:56.871Z,96499.69
2022-12-01T12:01:29.121Z,96489.34
2022-12-01T12:04:37.852Z,96488.69
2022-12-01T12:07:41.682Z,96488.72
2022-12-01T12:10:32.948Z,96482.94
2022-12-01T12:13:28.525Z,96483.78
2022-12-01T12:16:24.548Z,96485.72
2022-12-01T12:19:05.945Z,96478.19
2022-12-01T12:21:48.359Z,96478.69
2022-12-01T12:24:46.739Z,96481.31
2022-12-01T12:27:16.529Z,96476.41
2022-12-01T12:30:03.963Z,96481.97
2022-12-01T12:32:33.598Z,96474.25
2022-12-01T12:35:37.793Z,96471.31
2022-12-01T12:38:31.289Z,96470.31
2022-12-01T12:41:12.513Z,96464.06
2022-12-01T12:43:44.315Z,96471.47
2022-12-01T12:46:13.946Z,96468.50
2022-12-01T12:49:11.632Z,96468.66
2022-12-01T12:51:55.836Z,96469.00
2022-12-01T12:54:26.185Z,96463.75
2022-12-01T12:57:02.552Z,96460.63
2022-12-01T12:59:58.049Z,96468.69
2022-12-01T13:02:27.909Z,96459.81
2022-12-01T13:05:04.374Z,96460.13
2022-12-01T13:07:47.557Z,96456.84
2022-12-01T13:10:42.004Z,96467.34
2022-12-01T13:13:30.171Z,96464.75
2022-12-01T13:15:59.181Z,96467.50
2022-12-01T13:18:33.443Z,96463.38
2022-12-01T13:21:03.968Z,96457.50
2022-12-01T13:23:31.899Z,96458.63
2022-12-01T13:26:00.846Z,96452.38
2022-12-01T13:28:34.778Z,96456.84
2022-12-01T13:31:10.039Z,96451.41
2022-12-01T13:33:38.914Z,96448.31
2022-12-01T13:39:14.985Z,96446.34
2022-12-01T13:41:44.742Z,96451.09
2022-12-01T13:44:20.332Z,96452.56
2022-12-01T13:46:47.116Z,96442.22
2022-12-01T13:49:33.885Z,96449.44
2022-12-01T13:52:22.298Z,96443.38
2022-12-01T13:55:10.578Z,96444.38
2022-12-01T13:57:47.898Z,96444.38
2022-12-01T14:00:23.526Z,96443.72
2022-12-01T14:03:15.084Z,96442.56
2022-12-01T15:48:43.047Z,96460.47
2022-12-01T15:51:12.381Z,96454.69
2022-12-01T15:53:45.849Z,96456.00
2022-12-01T15:56:12.460Z,96457.34
2022-12-01T15:58:48.590Z,96456.81
2022-12-01T16:01:20.026Z,96451.88
2022-12-01T16:04:03.209Z,96450.91
2022-12-01T16:06:34.141Z,96449.94
2022-12-01T16:09:07.291Z,96450.56
2022-12-01T16:11:33.902Z,96451.22
2022-12-01T16:14:04.666Z,96450.91
2022-12-01T16:16:40.177Z,96447.28
2022-12-01T16:19:09.536Z,96448.94
2022-12-01T16:21:48.301Z,96456.50
2022-12-01T16:24:30.493Z,96450.59
2022-12-01T16:27:03.911Z,96449.28
2022-12-01T16:29:34.897Z,96453.69
2022-12-01T16:32:20.577Z,96461.44
2022-12-01T16:34:48.286Z,96455.03
2022-12-01T16:37:15.282Z,96450.94
2022-12-01T16:39:42.122Z,96450.09
2022-12-01T16:42:13.688Z,96450.91
2022-12-01T16:44:40.494Z,96455.50
2022-12-01T16:47:25.563Z,96458.63
2022-12-01T16:49:52.758Z,96457.44
2022-12-01T16:52:43.562Z,96454.78
2022-12-01T16:55:24.068Z,96452.84
2022-12-01T16:57:50.372Z,96456.25
2022-12-01T17:00:17.772Z,96447.41
2022-12-01T17:02:44.217Z,96451.97
2022-12-01T17:05:11.643Z,96451.16
2022-12-01T17:07:38.394Z,96447.91
2022-12-01T17:10:06.100Z,96447.59
2022-12-01T17:12:32.496Z,96451.72
2022-12-01T17:14:58.830Z,96459.88
2022-12-01T17:17:25.147Z,96444.91
2022-12-01T17:19:52.820Z,96452.00
2022-12-01T17:22:19.163Z,96448.88
2022-12-01T17:24:45.481Z,96455.13
2022-12-01T17:27:11.838Z,96448.22
2022-12-01T17:29:43.076Z,96449.03
2022-12-01T17:32:13.776Z,96454.59
2022-12-01T17:34:40.737Z,96459.00
2022-12-01T17:37:07.040Z,96458.69
2022-12-01T17:39:33.594Z,96455.72
2022-12-01T17:41:59.987Z,96449.53
2022-12-01T17:44:26.446Z,96454.47
2022-12-01T17:46:52.872Z,96448.56
2022-12-01T17:49:19.297Z,96451.88
2022-12-01T17:51:45.673Z,96453.81
2022-12-01T17:54:12.098Z,96459.72
2022-12-01T17:56:38.445Z,96462.50
2022-12-01T17:59:04.766Z,96464.00
2022-12-01T18:01:31.203Z,96466.13
2022-12-01T18:03:58.806Z,96472.47
2022-12-01T18:06:26.828Z,96476.41
2022-12-01T18:08:53.530Z,96477.13
2022-12-01T18:11:20.359Z,96470.53
2022-12-01T18:13:49.477Z,96480.00
2022-12-01T18:16:21.899Z,96475.72
2022-12-01T18:18:48.941Z,96466.53
2022-12-01T18:21:17.076Z,96479.16
2022-12-01T18:23:52.145Z,96481.84
2022-12-01T18:26:21.902Z,96469.56
2022-12-01T18:28:54.718Z,96479.69
2022-12-01T18:31:21.203Z,96473.00
2022-12-01T18:33:47.606Z,96477.56
2022-12-01T18:36:19.605Z,96472.13
2022-12-01T18:38:49.322Z,96474.97
2022-12-01T18:41:16.627Z,96472.47
2022-12-01T18:43:43.761Z,96479.25
2022-12-01T18:46:11.811Z,96467.94
2022-12-01T18:48:38.202Z,96462.06
2022-12-01T18:51:06.785Z,96463.38
2022-12-01T18:53:33.904Z,96464.88
2022-12-01T18:56:05.755Z,96458.75
2022-12-01T18:58:32.762Z,96466.56
2022-12-01T19:01:00.224Z,96466.09
2022-12-01T19:03:32.649Z,96463.59
2022-12-01T19:05:59.334Z,96454.41
2022-12-01T19:08:25.667Z,96460.50
2022-12-01T19:11:03.681Z,96450.00
2022-12-01T19:13:31.249Z,96457.22
2022-12-01T19:15:57.747Z,96451.06
2022-12-01T19:18:24.613Z,96452.41
2022-12-01T19:20:51.012Z,96456.50
2022-12-01T19:23:17.325Z,96444.69
2022-12-01T19:25:43.654Z,96466.09
2022-12-01T19:28:10.009Z,96463.16
2022-12-01T19:30:36.342Z,96453.28
2022-12-01T19:33:02.683Z,96456.22
2022-12-01T19:35:29.040Z,96453.28
2022-12-01T19:37:55.565Z,96450.38
2022-12-01T19:40:21.905Z,96455.47
2022-12-01T19:42:48.213Z,96449.09
2022-12-01T19:45:14.581Z,96450.91
2022-12-01T19:47:40.936Z,96448.63
2022-12-01T19:50:08.177Z,96451.63
2022-12-01T19:52:35.942Z,96448.53
2022-12-01T20:55:36.683Z,96455.38
2022-12-01T20:58:05.425Z,96450.59
2022-12-01T21:00:31.958Z,96459.31
2022-12-01T21:02:58.313Z,96467.81
2022-12-01T21:05:25.766Z,96458.31
2022-12-01T21:07:52.496Z,96462.59
2022-12-01T21:10:20.348Z,96461.25
2022-12-01T21:13:10.423Z,96452.09
2022-12-01T21:15:49.135Z,96452.09
2022-12-01T21:18:23.248Z,96456.38
2022-12-01T21:20:56.445Z,96449.69
2022-12-01T21:23:24.923Z,96448.22
2022-12-01T21:25:51.525Z,96455.44
2022-12-01T21:28:23.975Z,96445.44
2022-12-01T21:30:57.606Z,96452.94
2022-12-01T21:33:34.999Z,96450.81
2022-12-01T21:36:02.194Z,96443.97
2022-12-01T21:38:31.399Z,96433.97
2022-12-01T21:40:57.894Z,96441.81
2022-12-01T21:43:25.496Z,96437.06
2022-12-01T21:46:01.947Z,96431.16
2022-12-01T21:48:35.452Z,96436.09
2022-12-01T21:51:11.535Z,96434.94
2022-12-01T21:53:39.192Z,96430.19
2022-12-01T21:56:05.806Z,96428.88
2022-12-01T21:58:37.258Z,96424.28
2022-12-01T22:01:16.844Z,96426.91
2022-12-01T22:03:45.232Z,96433.97
2022-12-01T22:06:31.630Z,96422.97
2022-12-01T22:09:02.017Z,96425.78
2022-12-01T22:11:30.157Z,96413.75
2022-12-01T22:14:08.751Z,96430.31
2022-12-01T22:16:38.032Z,96422.94
2022-12-01T22:19:16.593Z,96421.84
2022-12-01T22:21:47.615Z,96422.63
2022-12-01T22:24:26.724Z,96424.78
2022-12-01T22:27:01.629Z,96419.00
2022-12-01T22:29:29.891Z,96417.03
2022-12-01T22:32:11.542Z,96423.63
2022-12-01T22:34:38.926Z,96422.50
2022-12-01T22:37:19.290Z,96423.81
2022-12-01T22:39:47.860Z,96419.03
2022-12-01T22:42:20.450Z,96425.13
2022-12-01T22:44:46.853Z,96419.03
2022-12-01T22:47:14.514Z,96418.03
2022-12-01T22:49:42.209Z,96412.16
2022-12-01T22:52:28.576Z,96412.16
2022-12-01T22:54:54.943Z,96408.22
2022-12-01T22:57:39.443Z,96409.50
2022-12-01T23:00:18.725Z,96407.53
2022-12-01T23:02:48.388Z,96406.22
2022-12-01T23:05:17.531Z,96399.97
2022-12-01T23:07:43.995Z,96402.78
2022-12-01T23:10:17.664Z,96403.94
2022-12-01T23:12:46.251Z,96403.94
2022-12-01T23:15:35.195Z,96399.34
2022-12-01T23:18:24.888Z,96398.69
2022-12-01T23:21:01.630Z,96400.34
2022-12-01T23:23:31.278Z,96396.25
2022-12-01T23:25:58.869Z,96389.34
2022-12-01T23:28:25.368Z,96399.00
2022-12-01T23:30:55.514Z,96391.50
2022-12-01T23:33:27.773Z,96384.59
2022-12-01T23:36:15.496Z,96383.28
2022-12-01T23:38:45.896Z,96378.69
2022-12-01T23:41:46.103Z,96381.47
2022-12-01T23:44:30.806Z,96383.09
2022-12-01T23:46:58.906Z,96375.06
2022-12-01T23:49:31.960Z,96372.13
2022-12-01T23:52:01.567Z,96374.75
2022-12-01T23:54:31.422Z,96368.97
2022-12-01T23:57:04.548Z,96367.69
2022-12-01T23:59:31.533Z,96373.09
